createdAt,value
2018-08-13T00:01:48.444Z,0.00
2018-08-13T00:02:48.384Z,0.00
2018-08-13T00:04:41.169Z,0.00
2018-08-13T00:05:41.096Z,0.00
2018-08-13T00:07:33.878Z,0.00
2018-08-13T00:08:33.802Z,0.00
2018-08-13T00:10:26.600Z,0.00
2018-08-13T00:11:26.548Z,0.00
2018-08-13T00:13:19.337Z,0.00
2018-08-13T00:14:19.271Z,0.00
2018-08-13T00:16:12.019Z,0.00
2018-08-13T00:17:11.962Z,0.00
2018-08-13T00:19:04.840Z,0.00
2018-08-13T00:20:04.670Z,0.00
2018-08-13T00:21:57.459Z,0.00
2018-08-13T00:22:57.400Z,0.00
2018-08-13T00:24:50.194Z,0.00
2018-08-13T00:25:50.116Z,0.00
2018-08-13T00:27:42.919Z,0.00
2018-08-13T00:28:42.819Z,0.00
2018-08-13T00:30:35.609Z,0.00
2018-08-13T00:31:35.543Z,0.00
2018-08-13T00:33:28.343Z,0.00
2018-08-13T00:34:28.258Z,0.00
2018-08-13T00:36:21.023Z,0.00
2018-08-13T00:37:20.996Z,0.00
2018-08-13T00:39:13.767Z,0.00
2018-08-13T00:40:13.677Z,0.00
2018-08-13T00:42:06.458Z,0.00
2018-08-13T00:43:06.392Z,0.00
2018-08-13T00:44:59.188Z,0.00
2018-08-13T00:45:59.159Z,0.00
2018-08-13T00:47:51.895Z,0.00
2018-08-13T00:48:51.842Z,0.00
2018-08-13T00:50:44.648Z,0.00
2018-08-13T00:51:44.550Z,0.00
2018-08-13T00:53:37.353Z,0.00
2018-08-13T00:54:37.282Z,0.00
2018-08-13T00:56:30.091Z,0.00
2018-08-13T00:57:30.041Z,0.00
2018-08-13T00:59:22.830Z,0.00
2018-08-13T01:00:22.749Z,0.00
2018-08-13T01:02:15.527Z,0.00
2018-08-13T01:03:15.466Z,0.00
2018-08-13T01:05:08.261Z,0.00
2018-08-13T01:06:08.185Z,0.00
2018-08-13T01:08:00.980Z,0.00
2018-08-13T01:09:00.885Z,0.00
2018-08-13T01:10:53.678Z,0.00
2018-08-13T01:11:53.617Z,0.00
2018-08-13T01:13:46.438Z,0.00
2018-08-13T01:14:46.361Z,0.00
2018-08-13T01:16:39.125Z,0.00
2018-08-13T01:17:39.063Z,0.00
2018-08-13T01:19:31.853Z,0.00
2018-08-13T01:20:31.786Z,0.00
2018-08-13T01:22:24.559Z,0.00
2018-08-13T01:23:24.490Z,0.00
2018-08-13T01:25:17.304Z,0.00
2018-08-13T01:26:17.218Z,0.00
2018-08-13T01:28:09.987Z,0.00
2018-08-13T01:29:09.919Z,0.00
2018-08-13T01:31:02.728Z,0.00
2018-08-13T01:32:02.662Z,0.00
2018-08-13T01:33:55.477Z,0.00
2018-08-13T01:34:55.395Z,0.00
2018-08-13T01:36:48.150Z,0.00
2018-08-13T01:37:48.094Z,0.00
2018-08-13T01:39:40.876Z,0.00
2018-08-13T01:40:40.797Z,0.00
2018-08-13T01:42:33.612Z,0.00
2018-08-13T01:43:33.544Z,0.00
2018-08-13T01:45:26.334Z,0.00
2018-08-13T01:46:26.260Z,0.00
2018-08-13T01:48:19.046Z,0.00
2018-08-13T01:49:18.967Z,0.00
2018-08-13T01:51:11.763Z,0.00
2018-08-13T01:52:11.683Z,0.00
2018-08-13T01:54:04.466Z,0.00
2018-08-13T01:55:04.401Z,0.00
2018-08-13T01:56:57.174Z,0.00
2018-08-13T01:57:57.117Z,0.00
2018-08-13T01:59:49.901Z,0.00
2018-08-13T02:00:49.815Z,0.00
2018-08-13T02:02:42.588Z,0.00
2018-08-13T02:03:42.524Z,0.00
2018-08-13T02:05:35.311Z,0.00
2018-08-13T02:06:35.241Z,0.00
2018-08-13T02:08:28.010Z,0.00
2018-08-13T02:09:27.932Z,0.00
2018-08-13T02:11:20.732Z,0.00
2018-08-13T02:12:20.654Z,0.00
2018-08-13T02:14:13.447Z,0.00
2018-08-13T02:15:13.363Z,0.00
2018-08-13T02:17:06.137Z,0.00
2018-08-13T02:18:06.082Z,0.00
2018-08-13T02:19:58.848Z,0.00
2018-08-13T02:20:58.773Z,0.00
2018-08-13T02:22:51.540Z,0.00
2018-08-13T02:23:51.472Z,0.00
2018-08-13T02:25:44.256Z,0.00
2018-08-13T02:26:44.182Z,0.00
2018-08-13T02:28:36.969Z,0.00
2018-08-13T02:29:36.909Z,0.00
2018-08-13T02:31:29.695Z,0.00
2018-08-13T02:32:29.618Z,0.00
2018-08-13T02:34:22.399Z,0.00
2018-08-13T02:35:22.334Z,0.00
2018-08-13T02:37:15.095Z,0.00
2018-08-13T02:38:15.042Z,0.00
2018-08-13T02:40:07.901Z,0.00
2018-08-13T02:41:07.810Z,0.00
2018-08-13T02:43:00.586Z,0.00
2018-08-13T02:44:00.511Z,0.00
2018-08-13T02:45:53.306Z,0.00
2018-08-13T02:46:53.226Z,0.00
2018-08-13T02:48:46.013Z,0.00
2018-08-13T02:49:45.952Z,0.00
2018-08-13T02:51:38.756Z,0.00
2018-08-13T02:52:38.673Z,0.00
2018-08-13T02:54:31.479Z,0.00
2018-08-13T02:55:31.401Z,0.00
2018-08-13T02:57:24.184Z,0.00
2018-08-13T02:58:24.117Z,0.00
2018-08-13T03:00:16.899Z,0.00
2018-08-13T03:01:16.822Z,0.00
2018-08-13T03:03:09.605Z,0.00
2018-08-13T03:04:09.539Z,0.00
2018-08-13T03:06:02.326Z,0.00
2018-08-13T03:07:02.255Z,0.00
2018-08-13T03:08:55.027Z,0.00
2018-08-13T03:09:54.956Z,0.00
2018-08-13T03:11:47.750Z,0.00
2018-08-13T03:12:47.676Z,0.00
2018-08-13T03:14:40.478Z,0.00
2018-08-13T03:15:40.379Z,0.00
2018-08-13T03:17:33.159Z,0.00
2018-08-13T03:18:33.084Z,0.00
2018-08-13T03:20:25.918Z,0.00
2018-08-13T03:21:25.795Z,0.00
2018-08-13T03:23:18.577Z,0.00
2018-08-13T03:24:18.513Z,0.00
2018-08-13T03:26:11.323Z,0.00
2018-08-13T03:27:11.228Z,0.00
2018-08-13T03:29:04.014Z,0.00
2018-08-13T03:30:03.949Z,0.00
2018-08-13T03:31:56.749Z,0.00
2018-08-13T03:32:56.654Z,0.00
2018-08-13T03:34:49.443Z,0.00
2018-08-13T03:35:49.364Z,0.00
2018-08-13T03:37:42.150Z,0.00
2018-08-13T03:38:42.094Z,0.00
2018-08-13T03:40:34.866Z,0.00
2018-08-13T03:41:34.786Z,0.00
2018-08-13T03:43:27.565Z,0.00
2018-08-13T03:44:27.501Z,0.00
2018-08-13T03:46:20.275Z,0.00
2018-08-13T03:47:20.193Z,0.00
2018-08-13T03:49:12.963Z,5.63
2018-08-13T03:50:12.974Z,5.63
2018-08-13T03:52:05.676Z,5.63
2018-08-13T03:53:05.600Z,5.63
2018-08-13T03:54:58.384Z,5.63
2018-08-13T03:55:58.311Z,5.63
2018-08-13T03:57:51.087Z,5.63
2018-08-13T03:58:51.020Z,5.63
2018-08-13T04:00:43.786Z,11.25
2018-08-13T04:01:43.726Z,11.25
2018-08-13T04:03:36.486Z,11.25
2018-08-13T04:04:36.422Z,11.25
2018-08-13T04:06:29.230Z,11.25
2018-08-13T04:07:29.137Z,11.25
2018-08-13T04:09:21.913Z,16.88
2018-08-13T04:10:21.855Z,16.88
2018-08-13T04:12:14.712Z,16.88
2018-08-13T04:13:14.585Z,16.88
2018-08-13T04:15:07.369Z,22.50
2018-08-13T04:16:07.296Z,22.50
2018-08-13T04:18:00.089Z,22.50
2018-08-13T04:19:00.045Z,22.50
2018-08-13T04:20:52.846Z,22.50
2018-08-13T04:21:52.740Z,22.50
2018-08-13T04:23:45.516Z,28.13
2018-08-13T04:24:45.457Z,28.13
2018-08-13T04:26:38.239Z,28.13
2018-08-13T04:27:38.175Z,28.13
2018-08-13T04:29:30.957Z,33.75
2018-08-13T04:30:30.887Z,33.75
2018-08-13T04:32:23.693Z,33.75
2018-08-13T04:33:23.604Z,33.75
2018-08-13T04:35:16.415Z,33.75
2018-08-13T04:36:16.312Z,33.75
2018-08-13T04:38:09.120Z,39.38
2018-08-13T04:39:09.058Z,39.38
2018-08-13T04:41:01.868Z,39.38
2018-08-13T04:42:01.776Z,39.38
2018-08-13T04:43:54.582Z,45.00
2018-08-13T04:44:54.500Z,45.00
2018-08-13T04:46:47.289Z,45.00
2018-08-13T04:47:47.233Z,50.63
2018-08-13T04:49:40.043Z,50.63
2018-08-13T04:50:39.946Z,50.63
2018-08-13T04:52:32.721Z,56.25
2018-08-13T04:53:32.646Z,56.25
2018-08-13T04:55:25.436Z,56.25
2018-08-13T04:56:25.367Z,61.88
2018-08-13T04:58:18.162Z,61.88
2018-08-13T04:59:18.086Z,61.88
2018-08-13T05:01:10.871Z,67.50
2018-08-13T05:02:10.795Z,67.50
2018-08-13T05:04:03.585Z,67.50
2018-08-13T05:05:03.531Z,67.50
2018-08-13T05:06:56.297Z,67.50
2018-08-13T05:07:56.225Z,67.50
2018-08-13T05:09:49.020Z,67.50
2018-08-13T05:10:48.952Z,73.13
2018-08-13T05:12:41.729Z,73.13
2018-08-13T05:13:41.652Z,73.13
2018-08-13T05:15:34.431Z,78.75
2018-08-13T05:16:34.362Z,78.75
2018-08-13T05:18:27.198Z,84.38
2018-08-13T05:19:27.104Z,84.38
2018-08-13T05:21:19.996Z,84.38
2018-08-13T05:22:19.804Z,90.00
2018-08-13T05:24:12.601Z,95.63
2018-08-13T05:25:12.529Z,101.25
2018-08-13T05:27:05.308Z,106.88
2018-08-13T05:28:05.219Z,118.13
2018-08-13T05:29:58.066Z,129.38
2018-08-13T05:30:57.998Z,135.00
2018-08-13T05:32:50.717Z,135.00
2018-08-13T05:33:50.642Z,135.00
2018-08-13T05:35:43.475Z,146.25
2018-08-13T05:36:43.410Z,146.25
2018-08-13T05:38:36.193Z,163.13
2018-08-13T05:39:36.108Z,202.50
2018-08-13T05:41:28.886Z,489.38
2018-08-13T05:42:28.808Z,838.13
2018-08-13T05:44:21.629Z,607.50
2018-08-13T05:45:21.558Z,517.50
2018-08-13T05:47:14.659Z,708.75
2018-08-13T05:48:14.423Z,922.50
2018-08-13T05:50:07.190Z,973.13
2018-08-13T05:51:07.106Z,1012.50
2018-08-13T05:52:59.924Z,1153.13
2018-08-13T05:53:59.821Z,973.13
2018-08-13T05:55:52.626Z,1113.75
2018-08-13T05:56:52.544Z,1338.75
2018-08-13T05:58:45.319Z,1490.63
2018-08-13T05:59:45.278Z,1485.00
2018-08-13T06:01:38.181Z,1485.00
2018-08-13T06:02:38.106Z,1428.75
2018-08-13T06:04:30.878Z,1186.88
2018-08-13T06:05:30.813Z,1423.13
2018-08-13T06:07:23.616Z,2205.00
2018-08-13T06:08:23.534Z,2171.25
2018-08-13T06:10:16.346Z,1766.25
2018-08-13T06:11:16.339Z,1428.75
2018-08-13T06:13:09.067Z,866.25
2018-08-13T06:14:08.993Z,669.38
2018-08-13T06:16:01.859Z,596.25
2018-08-13T06:17:01.796Z,652.50
2018-08-13T06:18:54.667Z,613.13
2018-08-13T06:19:54.593Z,646.88
2018-08-13T06:21:47.406Z,658.13
2018-08-13T06:22:47.338Z,742.50
2018-08-13T06:24:40.136Z,686.25
2018-08-13T06:25:40.086Z,675.00
2018-08-13T06:27:32.894Z,703.13
2018-08-13T06:28:32.823Z,703.13
2018-08-13T06:30:25.618Z,703.13
2018-08-13T06:31:25.556Z,691.88
2018-08-13T06:33:18.380Z,680.63
2018-08-13T06:34:18.324Z,736.88
2018-08-13T06:36:11.110Z,781.88
2018-08-13T06:37:11.071Z,798.75
2018-08-13T06:39:03.938Z,810.00
2018-08-13T06:40:03.862Z,787.50
2018-08-13T06:41:56.673Z,781.88
2018-08-13T06:42:56.610Z,770.63
2018-08-13T06:44:49.402Z,686.25
2018-08-13T06:45:49.347Z,663.75
2018-08-13T06:47:42.157Z,697.50
2018-08-13T06:48:42.093Z,720.00
2018-08-13T06:50:34.911Z,675.00
2018-08-13T06:51:34.840Z,658.13
2018-08-13T06:53:27.640Z,697.50
2018-08-13T06:54:27.574Z,675.00
2018-08-13T06:56:20.473Z,708.75
2018-08-13T06:57:20.361Z,708.75
2018-08-13T06:59:13.352Z,691.88
2018-08-13T07:00:13.268Z,843.75
2018-08-13T07:02:06.100Z,1271.25
2018-08-13T07:03:06.025Z,1558.13
2018-08-13T07:04:58.821Z,1681.88
2018-08-13T07:05:58.808Z,1051.88
2018-08-13T07:07:51.593Z,742.50
2018-08-13T07:08:51.530Z,765.00
2018-08-13T07:10:44.335Z,759.38
2018-08-13T07:11:44.286Z,804.38
2018-08-13T07:13:37.119Z,849.38
2018-08-13T07:14:37.055Z,1721.25
2018-08-13T07:16:29.842Z,1372.50
2018-08-13T07:17:29.797Z,1203.75
2018-08-13T07:19:22.604Z,1530.00
2018-08-13T07:20:22.535Z,1665.00
2018-08-13T07:22:15.514Z,2036.25
2018-08-13T07:23:15.403Z,1524.38
2018-08-13T07:25:08.153Z,1597.50
2018-08-13T07:26:08.101Z,2430.00
2018-08-13T07:28:00.966Z,2666.25
2018-08-13T07:29:00.876Z,2964.38
2018-08-13T07:30:53.706Z,2919.38
2018-08-13T07:31:53.661Z,3020.63
2018-08-13T07:33:46.544Z,3189.38
2018-08-13T07:34:46.410Z,3206.25
2018-08-13T07:36:39.226Z,3105.00
2018-08-13T07:37:39.186Z,3161.25
2018-08-13T07:39:32.049Z,3048.75
2018-08-13T07:40:31.935Z,3335.63
2018-08-13T07:42:24.742Z,3301.88
2018-08-13T07:43:24.676Z,3144.38
2018-08-13T07:45:17.471Z,3380.63
2018-08-13T07:46:17.427Z,3470.63
2018-08-13T07:48:10.265Z,3234.38
2018-08-13T07:49:10.207Z,3262.50
2018-08-13T07:51:03.001Z,3515.63
2018-08-13T07:52:02.958Z,3425.63
2018-08-13T07:53:55.842Z,3290.63
2018-08-13T07:54:55.722Z,2908.13
2018-08-13T07:56:48.538Z,2801.25
2018-08-13T07:57:48.492Z,2677.50
2018-08-13T07:59:41.294Z,3043.13
2018-08-13T08:00:41.233Z,2835.00
2018-08-13T08:02:34.103Z,2868.75
2018-08-13T08:03:34.041Z,3296.25
2018-08-13T08:05:26.878Z,3538.13
2018-08-13T08:06:26.818Z,3206.25
2018-08-13T08:08:19.692Z,3515.63
2018-08-13T08:09:19.752Z,3403.13
2018-08-13T08:11:12.455Z,3375.00
2018-08-13T08:12:12.397Z,3442.50
2018-08-13T08:14:05.230Z,3571.88
2018-08-13T08:15:05.167Z,3560.63
2018-08-13T08:16:58.003Z,3600.00
2018-08-13T08:17:57.933Z,3667.50
2018-08-13T08:19:50.762Z,3673.13
2018-08-13T08:20:50.708Z,3673.13
2018-08-13T08:22:43.517Z,3718.13
2018-08-13T08:23:43.447Z,3706.88
2018-08-13T08:25:36.253Z,3594.38
2018-08-13T08:26:36.192Z,3594.38
2018-08-13T08:28:29.016Z,3903.75
2018-08-13T08:29:29.026Z,3121.88
2018-08-13T08:31:21.773Z,1631.25
2018-08-13T08:32:21.723Z,1316.25
2018-08-13T08:34:14.563Z,1063.13
2018-08-13T08:35:14.502Z,1125.00
2018-08-13T08:37:07.337Z,2418.75
2018-08-13T08:38:07.259Z,2576.25
2018-08-13T08:40:00.065Z,2188.13
2018-08-13T08:41:00.094Z,2390.63
2018-08-13T08:42:52.828Z,3600.00
2018-08-13T08:43:52.763Z,3661.88
2018-08-13T08:45:45.572Z,2295.00
2018-08-13T08:46:45.525Z,2092.50
2018-08-13T08:48:38.361Z,2098.13
2018-08-13T08:49:38.298Z,1136.25
2018-08-13T08:51:31.139Z,703.13
2018-08-13T08:52:31.099Z,523.13
2018-08-13T08:54:23.888Z,500.63
2018-08-13T08:55:23.846Z,444.38
2018-08-13T08:57:16.646Z,433.13
2018-08-13T08:58:16.594Z,444.38
2018-08-13T09:00:09.417Z,534.38
2018-08-13T09:01:09.356Z,551.25
2018-08-13T09:03:02.234Z,534.38
2018-08-13T09:04:02.122Z,489.38
2018-08-13T09:05:54.962Z,624.38
2018-08-13T09:06:54.877Z,691.88
2018-08-13T09:08:47.695Z,731.25
2018-08-13T09:09:47.667Z,680.63
2018-08-13T09:11:40.429Z,703.13
2018-08-13T09:12:40.384Z,680.63
2018-08-13T09:14:33.209Z,601.88
2018-08-13T09:15:33.139Z,590.63
2018-08-13T09:17:25.948Z,658.13
2018-08-13T09:18:25.880Z,748.13
2018-08-13T09:20:18.722Z,1203.75
2018-08-13T09:21:18.628Z,1558.13
2018-08-13T09:23:11.437Z,1501.88
2018-08-13T09:24:11.376Z,1023.75
2018-08-13T09:26:04.721Z,742.50
2018-08-13T09:27:04.670Z,714.38
2018-08-13T09:28:57.497Z,1704.38
2018-08-13T09:29:57.483Z,2210.63
2018-08-13T09:31:50.233Z,2953.13
2018-08-13T09:32:50.192Z,3510.00
2018-08-13T09:34:43.318Z,3858.75
2018-08-13T09:35:43.247Z,3768.75
2018-08-13T09:37:36.058Z,3909.38
2018-08-13T09:38:36.004Z,3796.88
2018-08-13T09:40:28.824Z,3926.25
2018-08-13T09:41:28.776Z,3903.75
2018-08-13T09:43:21.594Z,3268.13
2018-08-13T09:44:21.526Z,3633.75
2018-08-13T09:46:14.360Z,3577.50
2018-08-13T09:47:14.273Z,3195.00
2018-08-13T09:49:07.133Z,1850.63
2018-08-13T09:50:07.115Z,1153.13
2018-08-13T09:51:59.849Z,568.13
2018-08-13T09:52:59.796Z,500.63
2018-08-13T09:54:52.640Z,450.00
2018-08-13T09:55:52.572Z,444.38
2018-08-13T09:57:45.395Z,787.50
2018-08-13T09:58:45.347Z,1361.25
2018-08-13T10:00:38.194Z,517.50
2018-08-13T10:01:38.107Z,450.00
2018-08-13T10:03:30.919Z,500.63
2018-08-13T10:04:30.892Z,523.13
2018-08-13T10:06:24.119Z,534.38
2018-08-13T10:07:23.683Z,556.88
2018-08-13T10:09:16.506Z,528.75
2018-08-13T10:10:16.419Z,472.50
2018-08-13T10:12:09.274Z,421.88
2018-08-13T10:13:09.206Z,900.00
2018-08-13T10:15:02.008Z,961.88
2018-08-13T10:16:01.942Z,1383.75
2018-08-13T10:17:54.821Z,528.75
2018-08-13T10:18:54.719Z,511.88
2018-08-13T10:20:47.587Z,1445.63
2018-08-13T10:21:47.495Z,2964.38
2018-08-13T10:23:40.316Z,590.63
2018-08-13T10:24:40.241Z,405.00
2018-08-13T10:26:33.064Z,376.88
2018-08-13T10:27:32.993Z,382.50
2018-08-13T10:29:25.793Z,416.25
2018-08-13T10:30:25.733Z,528.75
2018-08-13T10:32:18.577Z,1738.13
2018-08-13T10:33:18.515Z,1305.00
2018-08-13T10:35:11.408Z,894.38
2018-08-13T10:36:11.302Z,1625.63
2018-08-13T10:38:04.226Z,871.88
2018-08-13T10:39:04.160Z,1316.25
2018-08-13T10:40:57.041Z,2188.13
2018-08-13T10:41:56.998Z,1816.88
2018-08-13T10:43:49.856Z,1265.63
2018-08-13T10:44:49.820Z,748.13
2018-08-13T10:46:43.896Z,556.88
2018-08-13T10:47:43.636Z,551.25
2018-08-13T10:49:36.460Z,393.75
2018-08-13T10:50:36.480Z,433.13
2018-08-13T10:52:29.311Z,410.63
2018-08-13T10:53:29.254Z,421.88
2018-08-13T10:55:22.366Z,438.75
2018-08-13T10:56:22.291Z,388.13
2018-08-13T10:58:15.242Z,354.38
2018-08-13T10:59:15.205Z,371.25
2018-08-13T11:01:08.115Z,382.50
2018-08-13T11:02:07.979Z,365.63
2018-08-13T11:04:00.875Z,337.50
2018-08-13T11:05:00.902Z,320.63
2018-08-13T11:06:53.928Z,281.25
2018-08-13T11:07:53.811Z,320.63
2018-08-13T11:09:46.629Z,331.88
2018-08-13T11:10:46.565Z,326.25
2018-08-13T11:12:39.412Z,298.13
2018-08-13T11:13:39.328Z,292.50
2018-08-13T11:15:32.212Z,275.63
2018-08-13T11:16:32.136Z,270.00
2018-08-13T11:18:24.971Z,236.25
2018-08-13T11:19:24.908Z,253.13
2018-08-13T11:21:17.808Z,253.13
2018-08-13T11:22:17.767Z,236.25
2018-08-13T11:24:10.584Z,219.38
2018-08-13T11:25:10.569Z,219.38
2018-08-13T11:27:03.340Z,208.13
2018-08-13T11:28:03.274Z,196.88
2018-08-13T11:29:56.417Z,202.50
2018-08-13T11:30:56.206Z,219.38
2018-08-13T11:32:49.261Z,219.38
2018-08-13T11:33:49.175Z,219.38
2018-08-13T11:35:42.082Z,191.25
2018-08-13T11:36:42.019Z,196.88
2018-08-13T11:38:34.905Z,185.63
2018-08-13T11:39:34.843Z,180.00
2018-08-13T11:41:27.950Z,180.00
2018-08-13T11:42:27.624Z,180.00
2018-08-13T11:44:20.574Z,185.63
2018-08-13T11:45:20.451Z,185.63
2018-08-13T11:47:13.307Z,191.25
2018-08-13T11:48:13.235Z,191.25
2018-08-13T11:50:06.064Z,219.38
2018-08-13T11:51:06.055Z,213.75
2018-08-13T11:52:58.950Z,208.13
2018-08-13T11:53:58.906Z,168.75
2018-08-13T11:55:51.765Z,157.50
2018-08-13T11:56:51.692Z,168.75
2018-08-13T11:58:44.537Z,219.38
2018-08-13T11:59:44.508Z,241.88
2018-08-13T12:01:37.371Z,208.13
2018-08-13T12:02:37.257Z,202.50
2018-08-13T12:04:30.171Z,202.50
2018-08-13T12:05:30.100Z,208.13
2018-08-13T12:07:22.964Z,174.38
2018-08-13T12:08:22.926Z,196.88
2018-08-13T12:10:15.713Z,180.00
2018-08-13T12:11:15.698Z,174.38
2018-08-13T12:13:08.410Z,185.63
2018-08-13T12:14:08.466Z,191.25
2018-08-13T12:16:01.238Z,191.25
2018-08-13T12:17:01.081Z,196.88
2018-08-13T12:18:53.959Z,151.88
2018-08-13T12:19:53.924Z,157.50
2018-08-13T12:21:46.768Z,168.75
2018-08-13T12:22:46.719Z,185.63
2018-08-13T12:24:39.464Z,208.13
2018-08-13T12:25:39.367Z,219.38
2018-08-13T12:27:32.212Z,225.00
2018-08-13T12:28:32.121Z,225.00
2018-08-13T12:30:24.974Z,247.50
2018-08-13T12:31:24.923Z,270.00
2018-08-13T12:33:17.738Z,286.88
2018-08-13T12:34:17.671Z,292.50
2018-08-13T12:36:10.481Z,286.88
2018-08-13T12:37:10.433Z,275.63
2018-08-13T12:39:03.242Z,286.88
2018-08-13T12:40:03.161Z,309.38
2018-08-13T12:41:55.975Z,309.38
2018-08-13T12:42:55.911Z,315.00
2018-08-13T12:44:48.703Z,326.25
2018-08-13T12:45:48.650Z,331.88
2018-08-13T12:47:41.623Z,337.50
2018-08-13T12:48:41.420Z,326.25
2018-08-13T12:50:34.245Z,326.25
2018-08-13T12:51:34.185Z,326.25
2018-08-13T12:53:27.002Z,331.88
2018-08-13T12:54:26.938Z,331.88
2018-08-13T12:56:19.787Z,326.25
2018-08-13T12:57:19.761Z,320.63
2018-08-13T12:59:12.591Z,309.38
2018-08-13T13:00:12.582Z,309.38
2018-08-13T13:02:05.340Z,309.38
2018-08-13T13:03:05.280Z,303.75
2018-08-13T13:04:58.214Z,315.00
2018-08-13T13:05:58.175Z,320.63
2018-08-13T13:07:50.970Z,286.88
2018-08-13T13:08:50.912Z,292.50
2018-08-13T13:10:43.748Z,298.13
2018-08-13T13:11:43.627Z,281.25
2018-08-13T13:13:36.569Z,275.63
2018-08-13T13:14:36.455Z,275.63
2018-08-13T13:16:29.256Z,270.00
2018-08-13T13:17:29.150Z,258.75
2018-08-13T13:19:22.077Z,258.75
2018-08-13T13:20:21.976Z,258.75
2018-08-13T13:22:14.813Z,258.75
2018-08-13T13:23:14.739Z,258.75
2018-08-13T13:25:07.554Z,253.13
2018-08-13T13:26:07.497Z,247.50
2018-08-13T13:28:00.295Z,230.63
2018-08-13T13:29:00.235Z,225.00
2018-08-13T13:30:53.012Z,213.75
2018-08-13T13:31:52.957Z,219.38
2018-08-13T13:33:45.776Z,230.63
2018-08-13T13:34:45.849Z,230.63
2018-08-13T13:36:38.565Z,219.38
2018-08-13T13:37:38.514Z,213.75
2018-08-13T13:39:31.338Z,219.38
2018-08-13T13:40:31.330Z,219.38
2018-08-13T13:42:24.137Z,208.13
2018-08-13T13:43:24.324Z,196.88
2018-08-13T13:45:16.828Z,196.88
2018-08-13T13:46:16.823Z,208.13
2018-08-13T13:48:09.584Z,219.38
2018-08-13T13:49:09.503Z,213.75
2018-08-13T13:51:02.326Z,196.88
2018-08-13T13:52:02.322Z,196.88
2018-08-13T13:53:55.061Z,191.25
2018-08-13T13:54:55.000Z,191.25
2018-08-13T13:56:47.820Z,174.38
2018-08-13T13:57:47.753Z,168.75
2018-08-13T13:59:40.606Z,151.88
2018-08-13T14:00:40.502Z,146.25
2018-08-13T14:02:33.302Z,140.63
2018-08-13T14:03:33.223Z,146.25
2018-08-13T14:05:26.035Z,151.88
2018-08-13T14:06:26.038Z,151.88
2018-08-13T14:08:18.835Z,146.25
2018-08-13T14:09:18.769Z,140.63
2018-08-13T14:11:11.568Z,123.75
2018-08-13T14:12:11.502Z,118.13
2018-08-13T14:14:04.326Z,112.50
2018-08-13T14:15:04.254Z,118.13
2018-08-13T14:16:57.063Z,135.00
2018-08-13T14:17:56.997Z,135.00
2018-08-13T14:19:49.843Z,140.63
2018-08-13T14:20:49.717Z,140.63
2018-08-13T14:22:42.565Z,140.63
2018-08-13T14:23:42.499Z,140.63
2018-08-13T14:25:35.375Z,135.00
2018-08-13T14:26:35.316Z,135.00
2018-08-13T14:28:28.125Z,135.00
2018-08-13T14:29:28.046Z,135.00
2018-08-13T14:31:20.847Z,129.38
2018-08-13T14:32:20.783Z,129.38
2018-08-13T14:34:14.105Z,123.75
2018-08-13T14:35:13.988Z,118.13
2018-08-13T14:37:06.981Z,112.50
2018-08-13T14:38:06.901Z,112.50
2018-08-13T14:39:59.788Z,118.13
2018-08-13T14:40:59.635Z,112.50
2018-08-13T14:42:52.426Z,95.63
2018-08-13T14:43:52.350Z,95.63
2018-08-13T14:45:45.132Z,118.13
2018-08-13T14:46:45.081Z,129.38
2018-08-13T14:48:37.870Z,146.25
2018-08-13T14:49:37.797Z,151.88
2018-08-13T14:51:30.634Z,146.25
2018-08-13T14:52:30.549Z,146.25
2018-08-13T14:54:23.398Z,146.25
2018-08-13T14:55:23.330Z,151.88
2018-08-13T14:57:16.137Z,157.50
2018-08-13T14:58:16.223Z,163.13
2018-08-13T15:00:08.893Z,174.38
2018-08-13T15:01:08.829Z,168.75
2018-08-13T15:03:01.628Z,157.50
2018-08-13T15:04:01.569Z,146.25
2018-08-13T15:05:54.356Z,129.38
2018-08-13T15:06:54.345Z,123.75
2018-08-13T15:08:47.097Z,112.50
2018-08-13T15:09:47.026Z,112.50
2018-08-13T15:11:39.828Z,112.50
2018-08-13T15:12:39.757Z,118.13
2018-08-13T15:14:32.546Z,129.38
2018-08-13T15:15:32.480Z,140.63
2018-08-13T15:17:25.265Z,146.25
2018-08-13T15:18:25.211Z,146.25
2018-08-13T15:20:18.061Z,146.25
2018-08-13T15:21:17.988Z,135.00
2018-08-13T15:23:10.795Z,118.13
2018-08-13T15:24:10.728Z,112.50
2018-08-13T15:26:03.548Z,106.88
2018-08-13T15:27:03.555Z,106.88
2018-08-13T15:28:56.300Z,106.88
2018-08-13T15:29:56.298Z,101.25
2018-08-13T15:31:49.013Z,95.63
2018-08-13T15:32:48.980Z,95.63
2018-08-13T15:34:41.762Z,84.38
2018-08-13T15:35:41.764Z,78.75
2018-08-13T15:37:34.487Z,78.75
2018-08-13T15:38:34.428Z,84.38
2018-08-13T15:40:27.223Z,84.38
2018-08-13T15:41:27.153Z,78.75
2018-08-13T15:43:19.959Z,67.50
2018-08-13T15:44:19.899Z,61.88
2018-08-13T15:46:12.685Z,56.25
2018-08-13T15:47:12.630Z,56.25
2018-08-13T15:49:05.452Z,50.63
2018-08-13T15:50:05.371Z,50.63
2018-08-13T15:51:58.203Z,45.00
2018-08-13T15:52:58.102Z,39.38
2018-08-13T15:54:50.926Z,39.38
2018-08-13T15:55:50.835Z,39.38
2018-08-13T15:57:43.652Z,39.38
2018-08-13T15:58:43.590Z,39.38
2018-08-13T16:00:36.513Z,39.38
2018-08-13T16:01:36.456Z,39.38
2018-08-13T16:03:29.240Z,39.38
2018-08-13T16:04:29.172Z,39.38
2018-08-13T16:06:21.940Z,45.00
2018-08-13T16:07:21.880Z,45.00
2018-08-13T16:09:14.716Z,50.63
2018-08-13T16:10:14.647Z,56.25
2018-08-13T16:12:07.458Z,56.25
2018-08-13T16:13:07.410Z,56.25
2018-08-13T16:15:00.188Z,56.25
2018-08-13T16:16:00.129Z,56.25
2018-08-13T16:17:52.918Z,61.88
2018-08-13T16:18:52.866Z,61.88
2018-08-13T16:20:45.694Z,61.88
2018-08-13T16:21:45.597Z,61.88
2018-08-13T16:23:38.509Z,61.88
2018-08-13T16:24:38.364Z,56.25
2018-08-13T16:26:31.145Z,56.25
2018-08-13T16:27:31.075Z,56.25
2018-08-13T16:29:24.453Z,50.63
2018-08-13T16:30:23.808Z,50.63
2018-08-13T16:32:16.585Z,50.63
2018-08-13T16:33:16.525Z,50.63
2018-08-13T16:35:09.320Z,56.25
2018-08-13T16:36:09.253Z,56.25
2018-08-13T16:38:02.138Z,56.25
2018-08-13T16:39:02.099Z,56.25
2018-08-13T16:40:54.907Z,56.25
2018-08-13T16:41:54.824Z,56.25
2018-08-13T16:43:47.671Z,61.88
2018-08-13T16:44:47.586Z,61.88
2018-08-13T16:46:40.412Z,56.25
2018-08-13T16:47:40.357Z,56.25
2018-08-13T16:49:33.215Z,50.63
2018-08-13T16:53:18.267Z,50.63
2018-08-13T16:54:18.193Z,50.63
2018-08-13T16:56:11.060Z,56.25
2018-08-13T16:57:10.976Z,56.25
2018-08-13T16:59:03.727Z,56.25
2018-08-13T17:00:03.653Z,56.25
2018-08-13T17:01:56.490Z,50.63
2018-08-13T17:02:56.908Z,50.63
2018-08-13T17:04:49.280Z,45.00
2018-08-13T17:05:49.192Z,45.00
2018-08-13T17:07:42.167Z,39.38
2018-08-13T17:08:42.113Z,39.38
2018-08-13T17:10:34.904Z,45.00
2018-08-13T17:11:34.836Z,45.00
2018-08-13T17:13:27.677Z,45.00
2018-08-13T17:14:27.815Z,45.00
2018-08-13T17:16:20.412Z,39.38
2018-08-13T17:17:20.311Z,39.38
2018-08-13T17:19:13.225Z,45.00
2018-08-13T17:20:13.045Z,45.00
2018-08-13T17:22:06.092Z,45.00
2018-08-13T17:23:05.979Z,45.00
2018-08-13T17:24:58.848Z,45.00
2018-08-13T17:25:58.717Z,45.00
2018-08-13T17:27:51.555Z,45.00
2018-08-13T17:28:51.493Z,39.38
2018-08-13T17:30:44.319Z,39.38
2018-08-13T17:31:44.244Z,39.38
2018-08-13T17:33:37.046Z,39.38
2018-08-13T17:34:36.961Z,33.75
2018-08-13T17:36:29.812Z,33.75
2018-08-13T17:37:29.728Z,33.75
2018-08-13T17:39:22.540Z,28.13
2018-08-13T17:40:22.486Z,28.13
2018-08-13T17:42:15.274Z,28.13
2018-08-13T17:43:15.439Z,28.13
2018-08-13T17:45:08.026Z,28.13
2018-08-13T17:46:08.055Z,28.13
2018-08-13T17:48:00.826Z,28.13
2018-08-13T17:49:00.709Z,28.13
2018-08-13T17:50:53.570Z,33.75
2018-08-13T17:51:53.457Z,33.75
2018-08-13T17:53:46.283Z,22.50
2018-08-13T17:54:46.205Z,22.50
2018-08-13T17:56:39.145Z,16.88
2018-08-13T17:57:39.093Z,16.88
2018-08-13T17:59:32.369Z,16.88
2018-08-13T18:00:32.167Z,16.88
2018-08-13T18:02:25.616Z,16.88
2018-08-13T18:03:25.209Z,11.25
2018-08-13T18:05:18.578Z,11.25
2018-08-13T18:06:18.271Z,11.25
2018-08-13T18:08:11.181Z,11.25
2018-08-13T18:09:11.117Z,5.63
2018-08-13T18:11:03.865Z,5.63
2018-08-13T18:12:03.896Z,5.63
2018-08-13T18:13:56.653Z,5.63
2018-08-13T18:14:56.594Z,5.63
2018-08-13T18:16:49.363Z,5.63
2018-08-13T18:17:49.291Z,5.63
2018-08-13T18:19:42.139Z,5.63